Time;durP1;ratioP1;P1;durP2;ratioP2;P2;SDS_P1;SDS_P2;PMS_P1;PMS_P2;Temp;Humidity;BMP_temperature;BMP_pressure;BME280_temperature;BME280_humidity;BME280_pressure;Samples;Min_cycle;Max_cycle;Signal;HPM_P1;HPM_P2
2023/04/02 00:02:21;;;;;;;9.13;4.50;;;3.10;99.90;;;3.36;100.00;100383.41;4865795;29;20135;-76
2023/04/02 00:05:29;;;;;;;9.95;4.40;;;3.10;99.90;;;3.42;100.00;100400.72;4862098;29;20056;-75
2023/04/02 00:08:19;;;;;;;12.73;4.82;;;3.10;99.90;;;3.37;100.00;100395.03;4862939;29;20045;-76
2023/04/02 00:10:51;;;;;;;12.65;4.70;;;3.10;99.90;;;3.25;100.00;100402.66;4830551;29;20044;-76
2023/04/02 00:13:17;;;;;;;12.05;4.50;;;3.10;99.90;;;3.30;100.00;100417.31;4861970;29;21082;-75
2023/04/02 00:15:50;;;;;;;9.10;4.15;;;3.10;99.90;;;3.30;100.00;100414.63;4865940;29;20041;-76
2023/04/02 00:18:20;;;;;;;9.55;4.00;;;3.10;99.90;;;3.39;100.00;100419.97;4851008;29;20033;-76
2023/04/02 00:20:54;;;;;;;8.02;3.55;;;3.10;99.90;;;3.23;100.00;100418.19;4860586;29;20071;-75
2023/04/02 00:23:21;;;;;;;7.13;3.53;;;3.10;99.90;;;3.33;100.00;100423.38;4861207;29;20048;-76
2023/04/02 00:25:47;;;;;;;6.60;3.63;;;3.10;99.90;;;3.34;100.00;100443.94;4870718;29;20051;-76
2023/04/02 00:28:20;;;;;;;9.73;4.22;;;3.10;99.90;;;3.31;100.00;100443.25;4869630;29;20497;-76
2023/04/02 00:31:00;;;;;;;8.60;4.10;;;3.10;99.90;;;3.33;100.00;100435.00;4863756;29;20065;-75
2023/04/02 00:33:30;;;;;;;12.57;4.13;;;3.10;99.90;;;3.38;100.00;100448.81;4862072;29;20044;-75
2023/04/02 00:35:56;;;;;;;7.68;4.00;;;3.10;99.90;;;3.23;100.00;100462.16;4861993;29;20041;-75
2023/04/02 00:38:32;;;;;;;8.75;3.38;;;3.00;99.90;;;3.20;100.00;100446.34;4833413;29;20696;-75
2023/04/02 00:41:02;;;;;;;7.60;3.45;;;3.10;99.90;;;3.24;100.00;100455.75;4844884;29;20052;-76
2023/04/02 00:43:35;;;;;;;9.73;3.83;;;3.00;99.90;;;3.24;100.00;100463.00;4861655;29;20045;-76
2023/04/02 00:46:09;;;;;;;9.25;3.75;;;3.00;99.90;;;3.23;100.00;100459.47;4856682;29;20041;-75
2023/04/02 00:48:51;;;;;;;9.13;3.70;;;3.00;99.90;;;3.37;100.00;100475.94;4852870;29;20521;-76
2023/04/02 00:51:26;;;;;;;8.82;3.20;;;3.00;99.90;;;3.27;100.00;100481.53;4862057;29;20093;-76
2023/04/02 00:53:56;;;;;;;12.55;3.78;;;3.00;99.90;;;3.31;100.00;100488.25;4860320;29;20457;-76
2023/04/02 00:56:46;;;;;;;8.63;3.60;;;2.90;99.90;;;3.13;100.00;100466.91;4845114;29;20386;-75
2023/04/02 00:59:35;;;;;;;8.13;3.05;;;2.90;99.90;;;3.27;100.00;100497.69;4859907;29;20041;-76
2023/04/02 01:02:13;;;;;;;9.55;2.80;;;2.90;99.90;;;3.19;100.00;100498.59;4861597;29;20124;-76
2023/04/02 01:04:40;;;;;;;6.60;2.53;;;2.90;99.90;;;2.95;100.00;100486.84;4860257;29;20041;-76
2023/04/02 01:07:11;;;;;;;6.33;2.70;;;2.80;99.90;;;3.14;100.00;100501.78;4843793;29;20037;-76
2023/04/02 01:10:11;;;;;;;9.43;3.10;;;2.80;99.90;;;3.07;100.00;100494.56;4849987;29;20784;-76
2023/04/02 01:13:22;;;;;;;6.90;2.92;;;2.80;99.90;;;3.09;100.00;100506.00;4846436;29;20097;-75
2023/04/02 01:16:19;;;;;;;10.48;2.92;;;2.80;99.90;;;3.02;100.00;100504.00;4829305;29;20549;-75
2023/04/02 01:18:50;;;;;;;7.43;2.70;;;2.70;99.90;;;3.06;100.00;100511.75;4853825;29;20508;-75
2023/04/02 01:21:52;;;;;;;6.82;2.80;;;2.70;99.90;;;2.99;100.00;100519.66;4844875;29;20071;-76
2023/04/02 01:24:20;;;;;;;7.32;3.00;;;2.70;99.90;;;2.81;100.00;100515.31;4854101;29;20057;-76
2023/04/02 01:27:04;;;;;;;9.88;3.03;;;2.70;99.90;;;2.91;100.00;100523.19;4834367;29;20044;-75
2023/04/02 01:29:44;;;;;;;5.65;3.03;;;2.70;99.90;;;2.82;100.00;100521.53;4867440;29;20037;-76
2023/04/02 01:32:14;;;;;;;6.93;2.40;;;2.60;99.90;;;2.84;100.00;100532.97;4855026;29;20073;-76
2023/04/02 01:34:44;;;;;;;4.75;2.05;;;2.60;99.90;;;2.85;100.00;100530.13;4831588;29;20037;-75
2023/04/02 01:37:28;;;;;;;9.93;2.70;;;2.60;99.90;;;2.83;100.00;100537.53;4863082;29;20057;-75
2023/04/02 01:40:33;;;;;;;6.40;2.50;;;2.60;99.90;;;2.91;100.00;100550.16;4828932;29;20033;-75
2023/04/02 01:43:23;;;;;;;9.23;2.58;;;2.60;99.90;;;2.78;100.00;100550.66;4860037;29;20128;-76
2023/04/02 01:45:49;;;;;;;7.25;2.60;;;2.60;99.90;;;2.81;100.00;100560.25;4866343;29;20076;-76
2023/04/02 01:48:26;;;;;;;8.43;2.38;;;2.50;99.90;;;2.54;100.00;100562.25;4865550;29;20037;-77
2023/04/02 01:50:55;;;;;;;7.45;2.42;;;2.50;99.90;;;2.60;100.00;100569.66;4872403;29;20041;-76
2023/04/02 01:53:26;;;;;;;8.02;2.63;;;2.50;99.90;;;2.52;100.00;100567.81;4847608;29;20045;-76
2023/04/02 01:55:58;;;;;;;5.38;2.33;;;2.50;99.90;;;2.51;100.00;100578.75;4861579;29;20101;-76
2023/04/02 01:58:30;;;;;;;5.72;2.40;;;2.50;99.90;;;2.42;100.00;100578.75;4859486;29;20041;-76
2023/04/02 02:01:16;;;;;;;6.90;2.22;;;2.50;99.90;;;2.47;100.00;100580.09;4848121;29;20033;-77
2023/04/02 02:03:44;;;;;;;8.02;2.22;;;2.50;99.90;;;2.24;100.00;100561.88;4844788;29;20043;-77
2023/04/02 02:06:13;;;;;;;;;;;2.50;99.90;;;2.66;100.00;100589.72;4844559;29;20475;-77
2023/04/02 02:09:02;;;;;;;6.70;2.30;;;2.50;99.90;;;2.62;100.00;100589.19;4844115;29;19928;-76
2023/04/02 02:11:31;;;;;;;6.50;2.25;;;2.50;99.90;;;2.63;100.00;100601.66;4873493;29;20033;-78
2023/04/02 02:14:11;;;;;;;7.55;2.05;;;2.40;99.90;;;2.58;100.00;100610.25;4861615;29;20173;-77
2023/04/02 02:16:40;;;;;;;5.10;2.00;;;2.40;99.90;;;2.40;100.00;100607.69;4844227;29;20084;-77
2023/04/02 02:19:42;;;;;;;8.77;2.53;;;2.50;99.90;;;2.33;100.00;100585.09;4852781;29;20574;-77
2023/04/02 02:22:30;;;;;;;5.90;1.85;;;2.40;99.90;;;2.36;100.00;100618.94;4844488;29;20390;-77
2023/04/02 02:25:05;;;;;;;7.13;2.50;;;2.40;99.90;;;2.37;100.00;100617.94;4844671;29;20041;-77
2023/04/02 02:28:00;;;;;;;6.53;2.00;;;2.40;99.90;;;2.41;100.00;100624.69;4845019;29;20050;-77
2023/04/02 02:30:43;;;;;;;6.47;1.88;;;2.40;99.90;;;2.28;100.00;100627.81;4824064;29;20057;-77
2023/04/02 02:33:27;;;;;;;5.93;2.03;;;2.40;99.90;;;2.44;100.00;100638.66;4826302;29;20045;-77
2023/04/02 02:36:34;;;;;;;5.20;1.88;;;2.40;99.90;;;2.25;100.00;100645.13;4822756;29;20035;-77
2023/04/02 02:39:26;;;;;;;5.82;2.03;;;2.40;99.90;;;2.38;100.00;100652.75;4836493;29;20999;-76
2023/04/02 02:42:04;;;;;;;6.47;2.05;;;2.40;99.90;;;2.62;100.00;100650.31;4837211;29;20483;-77
2023/04/02 02:44:40;;;;;;;6.32;2.20;;;2.40;99.90;;;2.61;100.00;100640.56;4823382;29;20418;-77
2023/04/02 02:47:18;;;;;;;4.72;2.10;;;2.40;99.90;;;2.42;100.00;100659.53;4823556;29;20045;-77
2023/04/02 02:49:52;;;;;;;5.95;1.70;;;2.40;99.90;;;2.45;100.00;100671.81;4822846;29;20035;-77
2023/04/02 02:52:49;;;;;;;5.80;2.47;;;2.40;99.90;;;2.33;100.00;100652.41;4841539;29;20107;-77
2023/04/02 02:55:23;;;;;;;4.75;1.58;;;2.40;99.90;;;2.40;100.00;100675.00;4806879;29;20075;-77
2023/04/02 02:58:06;;;;;;;3.45;1.70;;;2.40;99.90;;;2.35;100.00;100684.56;4839888;29;20506;-77
2023/04/02 03:00:39;;;;;;;6.85;1.98;;;2.40;99.90;;;2.20;100.00;100662.81;4830973;29;20070;-77
2023/04/02 03:03:15;;;;;;;5.95;2.00;;;2.40;99.90;;;2.20;100.00;100665.50;4832582;29;20041;-77
2023/04/02 03:05:41;;;;;;;6.90;2.13;;;2.40;99.90;;;2.38;100.00;100695.84;4809227;29;20122;-76
2023/04/02 03:08:40;;;;;;;8.75;2.40;;;2.40;99.90;;;2.38;100.00;100701.22;4824875;29;20098;-73
2023/04/02 03:11:31;;;;;;;5.25;1.75;;;2.40;99.90;;;2.35;100.00;100700.72;4836305;29;20091;-77
2023/04/02 03:14:13;;;;;;;3.58;1.75;;;2.40;99.90;;;2.40;100.00;100709.16;4822012;29;20069;-76
2023/04/02 03:16:49;;;;;;;3.88;2.00;;;2.50;99.90;;;2.41;100.00;100719.78;4823098;29;20038;-76
2023/04/02 03:19:42;;;;;;;6.07;1.73;;;2.40;99.90;;;2.39;100.00;100713.72;4825050;29;20042;-76
2023/04/02 03:22:44;;;;;;;8.52;2.20;;;2.50;99.90;;;2.43;100.00;100715.09;4840569;29;20522;-76
2023/04/02 03:25:40;;;;;;;5.13;2.25;;;2.50;99.90;;;2.49;99.65;100734.28;4840454;29;20046;-77
2023/04/02 03:28:17;;;;;;;6.70;2.10;;;2.50;99.90;;;2.52;100.00;100733.97;4810970;29;20034;-76
2023/04/02 03:31:05;;;;;;;4.80;1.73;;;2.40;99.90;;;2.50;100.00;100746.75;4840776;29;20057;-76
2023/04/02 03:33:46;;;;;;;4.50;1.90;;;2.40;99.90;;;2.33;100.00;100735.88;4840857;29;20041;-76
2023/04/02 03:36:47;;;;;;;4.30;1.85;;;2.50;99.90;;;2.47;100.00;100755.16;4835514;29;20053;-76
2023/04/02 03:39:45;;;;;;;6.95;2.30;;;2.50;99.90;;;2.39;100.00;100762.19;4831051;29;20065;-77
2023/04/02 03:42:26;;;;;;;5.57;1.98;;;2.40;99.90;;;2.45;100.00;100771.47;4851402;29;20045;-76
2023/04/02 03:45:10;;;;;;;11.07;2.72;;;2.40;99.90;;;2.43;100.00;100770.78;4842247;29;20069;-75
2023/04/02 03:47:46;;;;;;;6.00;1.92;;;2.40;99.90;;;2.41;100.00;100779.03;4827462;29;20069;-75
2023/04/02 03:50:30;;;;;;;6.38;1.85;;;2.40;99.90;;;2.34;100.00;100769.88;4840688;29;20039;-74
2023/04/02 03:53:00;;;;;;;6.85;2.13;;;2.40;99.90;;;2.39;100.00;100777.50;4817832;29;20042;-76
2023/04/02 03:55:32;;;;;;;;;;;2.40;99.90;;;2.43;100.00;100782.41;4826793;29;20038;-75
2023/04/02 03:58:38;;;;;;;5.30;1.75;;;2.40;99.90;;;2.44;100.00;100786.78;4841231;29;20011;-76
2023/04/02 04:01:43;;;;;;;4.63;1.70;;;2.40;99.90;;;2.56;99.99;100802.66;4826379;29;20044;-77
2023/04/02 04:04:17;;;;;;;5.53;1.90;;;2.40;99.90;;;2.46;100.00;100794.69;4850207;29;20494;-76
2023/04/02 04:06:49;;;;;;;7.43;1.90;;;2.40;99.90;;;2.52;98.93;100810.22;4840245;29;20046;-77
2023/04/02 04:09:30;;;;;;;5.38;2.00;;;2.40;99.90;;;2.55;100.00;100817.13;4843755;29;20088;-76
2023/04/02 04:12:30;;;;;;;7.85;2.40;;;2.40;99.90;;;2.55;98.15;100814.44;4841283;29;20038;-75
2023/04/02 04:15:21;;;;;;;6.95;2.10;;;2.40;99.90;;;2.41;97.04;100816.72;4844659;29;20062;-75
2023/04/02 04:18:23;;;;;;;7.65;1.95;;;2.40;99.90;;;2.46;97.05;100827.00;4831307;29;20448;-76
2023/04/02 04:20:57;;;;;;;6.93;1.73;;;2.50;99.90;;;2.44;97.36;100831.72;4833721;29;20062;-76
2023/04/02 04:23:37;;;;;;;3.67;1.42;;;2.50;99.90;;;2.39;97.41;100829.50;4835014;29;20031;-76
2023/04/02 04:26:29;;;;;;;3.97;1.70;;;2.40;99.90;;;2.48;96.02;100843.84;4835472;29;20053;-76
2023/04/02 04:29:26;;;;;;;5.57;2.10;;;2.40;99.90;;;2.51;96.68;100851.59;4839101;29;20095;-75
2023/04/02 04:31:54;;;;;;;4.57;1.80;;;2.40;99.90;;;2.48;95.22;100851.94;4822479;29;20091;-76
2023/04/02 04:34:45;;;;;;;8.75;1.88;;;2.50;99.90;;;2.52;94.56;100855.16;4810814;29;20134;-74
2023/04/02 04:37:38;;;;;;;5.60;1.52;;;2.50;99.90;;;2.52;95.41;100856.03;4845223;29;20038;-74
2023/04/02 04:40:28;;;;;;;4.75;1.67;;;2.50;99.90;;;2.44;94.50;100855.94;4844432;29;20065;-75
2023/04/02 04:43:04;;;;;;;4.05;1.77;;;2.50;99.90;;;2.45;94.10;100854.94;4827902;29;20038;-75
2023/04/02 04:45:50;;;;;;;3.58;1.67;;;2.40;99.90;;;2.46;93.71;100872.78;4833147;29;20201;-75
2023/04/02 04:48:30;;;;;;;4.80;1.88;;;2.50;99.90;;;2.49;94.47;100885.13;4825060;29;20035;-74
2023/04/02 04:51:21;;;;;;;5.87;1.80;;;2.50;99.90;;;2.56;93.59;100888.84;4823836;29;20038;-75
2023/04/02 04:53:51;;;;;;;5.97;1.60;;;2.50;99.90;;;2.49;93.04;100890.50;4832811;29;20789;-75
2023/04/02 04:56:26;;;;;;;4.63;1.50;;;2.50;99.90;;;2.49;92.72;100891.31;4845366;29;20050;-76
2023/04/02 04:59:16;;;;;;;5.88;1.52;;;2.50;99.90;;;2.51;92.18;100894.72;4842461;29;20068;-76
2023/04/02 05:02:01;;;;;;;4.18;1.45;;;2.50;99.90;;;2.49;89.65;100901.28;4851717;29;20510;-75
2023/04/02 05:04:41;;;;;;;4.40;1.60;;;2.50;99.90;;;2.52;90.73;100903.66;4831826;29;20257;-76
2023/04/02 05:07:21;;;;;;;5.43;1.75;;;2.60;99.90;;;2.48;92.02;100918.44;4851490;29;20070;-76
2023/04/02 05:10:23;;;;;;;4.90;1.67;;;2.50;99.90;;;2.55;91.80;100919.50;4841802;29;20044;-76
2023/04/02 05:13:00;;;;;;;5.38;1.67;;;2.50;99.90;;;2.46;90.64;100923.13;4826225;29;20030;-76
2023/04/02 05:15:35;;;;;;;5.38;1.50;;;2.50;99.90;;;2.50;89.56;100938.81;4832463;29;20103;-78
2023/04/02 05:18:39;;;;;;;4.82;1.52;;;2.50;99.90;;;2.51;90.41;100951.28;4841482;29;20034;-77
2023/04/02 05:21:24;;;;;;;6.38;1.70;;;2.60;99.90;;;2.50;88.50;100930.72;4851574;29;20042;-76
2023/04/02 05:24:24;;;;;;;3.72;1.67;;;2.60;99.90;;;2.57;88.31;100955.19;4845527;29;20089;-75
2023/04/02 05:26:56;;;;;;;8.52;1.63;;;2.60;99.90;;;2.57;87.79;100960.59;4829817;29;20042;-77
2023/04/02 05:29:30;;;;;;;3.83;1.40;;;2.60;99.90;;;2.64;88.58;100956.25;4860091;29;20060;-77
2023/04/02 05:32:19;;;;;;;6.30;1.45;;;2.70;99.90;;;2.73;89.34;100976.03;4855344;29;997445;-77
2023/04/02 05:34:54;;;;;;;5.00;1.40;;;2.70;99.90;;;2.54;88.81;100951.00;4890513;29;20034;-77
2023/04/02 05:37:28;;;;;;;4.35;1.55;;;2.70;99.90;;;2.76;87.97;100974.88;4876685;29;20045;-76
2023/04/02 05:39:58;;;;;;;3.95;1.33;;;2.70;99.90;;;2.81;87.64;100975.25;4858548;29;20053;-75
2023/04/02 05:42:33;;;;;;;2.97;1.08;;;2.80;99.90;;;2.73;87.88;100958.03;4861598;29;20049;-76
2023/04/02 05:45:35;;;;;;;8.48;1.77;;;2.80;99.90;;;2.82;88.32;100975.09;4843615;29;20088;-74
2023/04/02 05:48:16;;;;;;;2.88;1.23;;;2.90;99.90;;;2.88;87.04;100976.28;4857739;29;20073;-76
2023/04/02 05:50:48;;;;;;;4.75;1.48;;;2.90;99.90;;;2.87;86.06;100991.63;4872293;29;20040;-76
2023/04/02 05:53:48;;;;;;;4.97;1.25;;;2.90;99.90;;;2.99;85.63;100994.91;4876278;29;20041;-75
2023/04/02 05:56:47;;;;;;;7.63;1.60;;;3.00;99.90;;;2.91;85.95;100994.84;4870983;29;20525;-77
2023/04/02 05:59:33;;;;;;;4.93;1.38;;;3.00;99.90;;;2.91;84.49;100994.84;4830825;29;20144;-77
2023/04/02 06:02:21;;;;;;;4.03;1.17;;;3.00;99.90;;;3.07;83.38;100996.81;4866496;29;20050;-76
2023/04/02 06:05:06;;;;;;;3.20;1.20;;;3.10;99.90;;;3.12;83.02;101007.97;4852466;29;20528;-76
2023/04/02 06:07:56;;;;;;;4.85;1.30;;;3.10;99.90;;;3.18;85.68;101022.66;4862504;29;20494;-75
2023/04/02 06:10:31;;;;;;;5.47;1.60;;;3.20;99.90;;;2.93;82.64;100983.91;4855516;29;20112;-77
2023/04/02 06:13:04;;;;;;;4.70;1.45;;;3.20;99.90;;;3.20;83.22;101020.66;4866853;29;20044;-76
2023/04/02 06:15:37;;;;;;;4.90;1.38;;;3.30;99.90;;;3.27;84.10;101031.63;4859797;29;20074;-76
2023/04/02 06:18:24;;;;;;;3.38;1.35;;;3.30;99.90;;;3.22;83.63;101037.53;4863877;29;20096;-77
2023/04/02 06:20:51;;;;;;;3.95;1.23;;;3.40;99.90;;;3.27;82.61;101026.25;4850646;29;20037;-77
2023/04/02 06:23:24;;;;;;;3.20;1.07;;;3.40;99.90;;;3.28;82.52;101036.88;4850974;29;20026;-77
2023/04/02 06:26:00;;;;;;;3.33;1.27;;;3.40;99.90;;;3.30;82.02;101069.94;4850677;29;20045;-77
2023/04/02 06:28:45;;;;;;;3.10;1.20;;;3.40;99.90;;;3.31;82.82;101062.69;4861752;29;20125;-76
2023/04/02 06:31:43;;;;;;;2.80;1.40;;;3.40;99.90;;;3.38;82.80;101071.00;4859017;29;20049;-77
2023/04/02 06:34:26;;;;;;;4.68;1.63;;;3.50;99.90;;;3.47;84.14;101080.84;4862727;29;20038;-76
2023/04/02 06:37:34;;;;;;;5.97;1.35;;;3.50;99.90;;;3.57;83.75;101086.09;4844705;29;20088;-75
2023/04/02 06:40:51;;;;;;;4.90;1.33;;;3.60;99.90;;;3.76;84.37;101087.75;4868526;29;20044;-76
2023/04/02 06:43:56;;;;;;;8.10;1.60;;;3.70;99.90;;;3.53;83.09;101092.81;4855690;29;20042;-75
2023/04/02 06:46:54;;;;;;;3.78;1.40;;;3.70;99.90;;;3.56;83.14;101096.06;4865369;29;20052;-77
2023/04/02 06:49:45;;;;;;;3.25;1.35;;;3.70;99.90;;;3.35;87.15;101093.75;4853090;29;20037;-75
2023/04/02 06:52:47;;;;;;;3.75;1.45;;;3.70;99.90;;;3.38;85.04;101111.44;4859971;29;20045;-76
2023/04/02 06:55:19;;;;;;;5.25;1.50;;;3.70;99.90;;;3.55;84.55;101115.97;4846962;29;20057;-76
2023/04/02 06:57:47;;;;;;;2.88;1.17;;;3.70;99.90;;;3.88;82.73;101096.41;4868494;29;20052;-76
2023/04/02 07:00:35;;;;;;;6.15;1.75;;;3.70;99.90;;;4.15;82.10;101119.63;4862037;29;20093;-77
2023/04/02 07:03:19;;;;;;;3.13;1.20;;;3.80;99.90;;;4.35;82.91;101127.47;4881470;29;20152;-75
2023/04/02 07:05:46;;;;;;;4.00;1.50;;;3.90;99.90;;;4.18;83.70;101130.09;4855835;29;20029;-76
2023/04/02 07:08:12;;;;;;;2.95;1.27;;;4.00;99.90;;;4.21;83.27;101128.06;4871318;29;20044;-76
2023/04/02 07:10:37;;;;;;;4.18;1.58;;;4.10;99.90;;;4.40;83.84;101141.31;4871314;29;20037;-74
2023/04/02 07:13:04;;;;;;;3.75;1.20;;;4.10;99.90;;;4.45;83.41;101130.03;4857224;29;20052;-75
2023/04/02 07:15:30;;;;;;;3.13;1.27;;;4.20;99.90;;;4.47;80.62;101138.81;4859993;29;20128;-75
2023/04/02 07:17:58;;;;;;;2.75;1.15;;;4.20;99.90;;;4.41;80.81;101143.00;4859313;29;20045;-75
2023/04/02 07:20:32;;;;;;;3.80;1.35;;;4.30;99.90;;;4.38;81.55;101139.81;4859717;29;20033;-75
2023/04/02 07:23:03;;;;;;;3.70;1.30;;;4.40;99.90;;;4.50;79.91;101157.41;4875956;29;20972;-76
2023/04/02 07:25:29;;;;;;;4.32;1.55;;;4.40;99.90;;;4.27;78.41;101160.69;4874806;29;20462;-76
2023/04/02 07:27:55;;;;;;;6.72;1.65;;;4.40;99.90;;;4.32;78.48;101162.91;4876191;29;20060;-76
2023/04/02 07:30:21;;;;;;;5.57;1.40;;;4.40;99.90;;;4.18;79.20;101149.00;4874568;29;20064;-74
2023/04/02 07:32:47;;;;;;;5.45;1.60;;;4.40;99.90;;;4.26;77.80;101164.41;4861273;29;20057;-76
2023/04/02 07:35:13;;;;;;;4.47;1.45;;;4.30;99.90;;;4.32;76.98;101176.44;4860744;29;20045;-74
2023/04/02 07:37:39;;;;;;;4.85;1.30;;;4.30;99.90;;;4.26;77.10;101177.91;4862046;29;20050;-75
2023/04/02 07:40:14;;;;;;;3.35;1.15;;;4.40;99.90;;;4.39;76.63;101188.25;4868141;29;20386;-75
2023/04/02 07:42:40;;;;;;;5.20;1.80;;;4.40;99.90;;;4.36;77.15;101185.88;4873139;29;20040;-75
2023/04/02 07:45:06;;;;;;;5.57;1.50;;;4.40;99.90;;;4.36;76.57;101164.28;4877938;29;20097;-75
2023/04/02 07:47:32;;;;;;;4.43;1.20;;;4.50;99.90;;;4.42;78.30;101195.22;4863981;29;20041;-75
2023/04/02 07:49:58;;;;;;;4.80;1.60;;;4.60;99.90;;;4.48;79.86;101210.75;4861204;29;20045;-75
2023/04/02 07:52:23;;;;;;;3.78;1.23;;;4.60;99.90;;;4.42;80.24;101182.53;4861869;29;20049;-75
2023/04/02 07:54:49;;;;;;;5.13;1.45;;;4.70;99.90;;;4.59;82.00;101212.31;4865053;29;20048;-76
2023/04/02 07:57:15;;;;;;;5.85;1.50;;;4.80;99.90;;;4.69;79.11;101215.72;4863856;29;20116;-76
2023/04/02 07:59:41;;;;;;;5.90;1.40;;;4.90;99.90;;;4.29;77.78;101211.88;4871497;29;20405;-76
2023/04/02 08:02:19;;;;;;;5.57;1.40;;;4.90;99.90;;;4.56;78.84;101229.69;4883591;29;20048;-75
2023/04/02 08:04:50;;;;;;;7.90;2.28;;;4.90;99.90;;;4.52;78.08;101220.22;4868255;29;20092;-77
2023/04/02 08:07:17;;;;;;;3.20;1.25;;;5.00;99.90;;;4.63;77.17;101235.31;4884574;29;20047;-75
2023/04/02 08:09:43;;;;;;;4.18;1.50;;;5.00;99.90;;;4.56;76.51;101231.56;4861883;29;20460;-75
2023/04/02 08:12:13;;;;;;;2.53;1.25;;;5.00;99.90;;;4.65;78.14;101246.81;4862359;29;20121;-76
2023/04/02 08:14:39;;;;;;;4.57;1.20;;;5.00;99.90;;;4.74;78.09;101243.09;4862555;29;20108;-76
2023/04/02 08:17:05;;;;;;;4.30;1.75;;;5.10;99.90;;;4.60;78.33;101249.16;4861791;29;20049;-76
2023/04/02 08:19:32;;;;;;;3.25;1.30;;;5.10;99.90;;;4.45;79.33;101252.47;4862365;29;20474;-75
2023/04/02 08:21:58;;;;;;;4.85;1.33;;;5.10;99.90;;;4.62;78.18;101247.13;4862126;29;20622;-75
2023/04/02 08:24:23;;;;;;;4.57;1.30;;;5.10;99.90;;;4.88;77.92;101267.84;4862569;29;20048;-76
2023/04/02 08:26:52;;;;;;;5.70;1.80;;;5.10;99.90;;;5.01;76.25;101246.56;4864738;29;20045;-77
2023/04/02 08:29:19;;;;;;;3.80;1.50;;;5.10;99.90;;;5.24;74.80;101264.88;4863358;29;20114;-76
2023/04/02 08:31:44;;;;;;;4.22;1.30;;;5.10;99.90;;;4.90;72.91;101245.00;4861692;29;20489;-76
2023/04/02 08:34:10;;;;;;;3.03;1.20;;;5.10;99.90;;;5.22;75.07;101272.31;4861883;29;20052;-77
2023/04/02 08:36:39;;;;;;;4.68;1.30;;;5.10;99.90;;;5.23;75.87;101284.00;4861448;29;20042;-77
2023/04/02 08:39:10;;;;;;;4.95;1.30;;;5.20;99.90;;;5.10;74.47;101279.91;4862692;29;21684;-77
2023/04/02 08:41:45;;;;;;;5.22;1.45;;;5.30;99.90;;;5.17;76.21;101294.47;4865414;29;20030;-76
2023/04/02 08:44:42;;;;;;;5.93;1.27;;;5.40;99.90;;;5.10;78.02;101311.53;4861862;29;20038;-77
2023/04/02 08:47:11;;;;;;;3.45;1.48;;;5.30;99.90;;;4.88;78.84;101297.59;4844763;29;20049;-77
2023/04/02 08:49:58;;;;;;;3.95;1.20;;;5.30;99.90;;;4.88;78.74;101319.22;4861473;29;20037;-77
2023/04/02 08:52:34;;;;;;;6.47;1.30;;;5.30;99.90;;;4.84;79.92;101334.91;4861002;29;20045;-76
2023/04/02 08:55:02;;;;;;;3.90;1.40;;;5.20;99.90;;;4.99;79.18;101321.63;4873504;29;20489;-74
2023/04/02 08:57:59;;;;;;;3.63;1.50;;;5.30;99.90;;;5.38;76.43;101320.19;4869367;29;20036;-75
2023/04/02 09:00:35;;;;;;;4.97;1.23;;;5.40;99.90;;;5.21;76.86;101323.91;4881819;29;20062;-75
2023/04/02 09:03:26;;;;;;;4.63;1.20;;;5.50;99.90;;;5.40;76.05;101330.88;4861314;29;20037;-75
2023/04/02 09:05:53;;;;;;;4.18;1.55;;;5.50;99.90;;;5.11;75.62;101318.63;4861958;29;20044;-75
2023/04/02 09:08:23;;;;;;;3.90;1.30;;;5.60;99.90;;;5.17;75.90;101332.34;4861550;29;20149;-76
2023/04/02 09:11:10;;;;;;;4.22;1.35;;;5.60;99.90;;;5.11;75.16;101340.25;4860939;29;20045;-75
2023/04/02 09:13:45;;;;;;;4.63;1.10;;;5.70;99.90;;;5.26;74.50;101338.59;4844103;29;20046;-76
2023/04/02 09:16:15;;;;;;;3.15;1.17;;;5.80;99.90;;;5.41;77.03;101357.75;4861766;29;20033;-75
2023/04/02 09:18:44;;;;;;;4.90;1.38;;;5.70;99.90;;;5.23;75.86;101363.28;4860642;29;20053;-75
2023/04/02 09:21:37;;;;;;;6.07;1.48;;;5.80;99.90;;;5.66;73.40;101354.25;4861253;29;20511;-75
2023/04/02 09:24:03;;;;;;;3.05;1.00;;;5.80;99.90;;;5.90;72.58;101361.56;4863142;29;20125;-75
2023/04/02 09:26:32;;;;;;;4.80;1.20;;;5.80;99.90;;;5.46;71.36;101363.53;4864409;29;20050;-75
2023/04/02 09:29:39;;;;;;;4.95;1.20;;;6.00;99.90;;;5.89;68.52;101358.03;4863650;29;20118;-75
2023/04/02 09:32:36;;;;;;;5.22;1.33;;;6.10;99.90;;;5.73;70.12;101361.56;4861064;29;20048;-75
2023/04/02 09:35:14;;;;;;;2.80;1.13;;;6.10;99.90;;;5.39;71.63;101375.19;4861301;29;20068;-75
2023/04/02 09:37:42;;;;;;;6.20;1.52;;;6.10;99.90;;;5.53;73.89;101384.53;4861136;29;20045;-77
2023/04/02 09:40:28;;;;;;;4.70;1.40;;;6.10;99.90;;;5.84;70.53;101382.06;4861277;29;20041;-75
2023/04/02 09:43:35;;;;;;;3.65;1.20;;;6.10;99.90;;;5.80;67.87;101374.44;4859168;29;20125;-75
2023/04/02 09:46:23;;;;;;;5.75;1.45;;;6.10;99.90;;;6.28;69.00;101385.47;4838719;29;20592;-75
2023/04/02 09:48:53;;;;;;;5.60;1.20;;;6.30;99.90;;;6.38;66.71;101385.28;4864945;29;20498;-75
2023/04/02 09:51:30;;;;;;;3.30;1.25;;;6.50;99.90;;;6.71;68.08;101398.78;4844165;29;20140;-75
2023/04/02 09:54:02;;;;;;;2.45;1.33;;;6.70;99.90;;;6.98;67.35;101397.53;4859989;29;20037;-76
2023/04/02 09:56:30;;;;;;;3.55;1.00;;;6.90;99.90;;;6.91;66.09;101399.28;4866130;29;20048;-77
2023/04/02 09:59:12;;;;;;;5.38;1.63;;;7.00;99.90;;;7.05;66.28;101395.81;4863280;29;20410;-76
2023/04/02 10:01:54;;;;;;;3.22;1.38;;;7.10;99.90;;;7.18;63.58;101408.81;4861180;29;20033;-76
2023/04/02 10:04:46;;;;;;;5.30;1.45;;;7.20;99.90;;;6.99;65.34;101404.66;4844631;29;20045;-74
2023/04/02 10:07:43;;;;;;;3.25;1.10;;;7.20;99.90;;;6.94;63.05;101407.06;4862847;29;20375;-74
2023/04/02 10:10:36;;;;;;;4.35;1.30;;;7.10;99.90;;;7.30;64.03;101422.84;4861302;29;20037;-75
2023/04/02 10:13:20;;;;;;;3.38;1.38;;;7.20;99.90;;;7.49;66.26;101431.63;4863200;29;20053;-74
2023/04/02 10:16:07;;;;;;;4.03;1.33;;;7.30;99.90;;;7.53;64.35;101434.78;4872112;29;20105;-75
2023/04/02 10:18:47;;;;;;;6.10;1.70;;;7.50;99.90;;;7.41;63.11;101428.91;4870421;29;20549;-75
2023/04/02 10:21:30;;;;;;;4.57;1.60;;;7.40;99.90;;;7.71;61.48;101424.53;4878698;29;20101;-75
2023/04/02 10:23:58;;;;;;;3.88;1.27;;;7.50;99.90;;;7.54;60.51;101417.47;4867783;29;20037;-77
2023/04/02 10:26:54;;;;;;;3.03;1.20;;;7.60;99.90;;;7.26;60.75;101432.38;4850862;29;20038;-75
2023/04/02 10:29:41;;;;;;;2.08;1.10;;;7.60;99.90;;;7.44;60.30;101440.28;4842983;29;20163;-74
2023/04/02 10:32:25;;;;;;;4.32;1.60;;;7.80;99.90;;;7.50;62.78;101449.59;4864284;29;20041;-76
2023/04/02 10:35:01;;;;;;;4.22;1.20;;;8.00;99.90;;;7.73;63.76;101459.66;4847364;29;20137;-74
2023/04/02 10:37:45;;;;;;;5.85;1.58;;;8.00;99.90;;;7.80;62.24;101460.63;4850678;29;20041;-75
2023/04/02 10:40:45;;;;;;;5.70;1.60;;;8.10;99.90;;;8.12;62.04;101466.88;4864326;29;20128;-75
2023/04/02 10:43:57;;;;;;;5.65;1.20;;;8.20;99.90;;;7.59;61.43;101463.97;4865801;29;20052;-76
2023/04/02 10:46:36;;;;;;;3.50;1.10;;;8.30;99.90;;;8.12;60.40;101442.44;4837267;29;20128;-75
2023/04/02 10:49:42;;;;;;;3.97;1.10;;;8.50;99.90;;;8.49;57.77;101448.97;4869172;29;20044;-75
2023/04/02 10:52:38;;;;;;;3.33;1.13;;;8.80;99.90;;;8.46;58.12;101430.25;4862651;29;20077;-76
2023/04/02 10:55:16;;;;;;;4.05;1.35;;;9.20;99.90;;;9.23;54.95;101432.91;4872394;29;20041;-76
2023/04/02 10:57:44;;;;;;;6.00;1.60;;;;;;;9.53;55.08;101448.38;4878912;29;20029;-75
2023/04/02 11:00:10;;;;;;;;;;;9.70;99.90;;;9.83;54.10;101443.72;4868608;29;20101;-74
2023/04/02 11:02:51;;;;;;;3.50;1.20;;;10.10;99.10;;;9.83;55.24;101451.03;4867498;29;19946;-76
2023/04/02 11:05:39;;;;;;;6.85;1.75;;;10.20;99.90;;;9.60;56.04;101466.50;4856867;29;20044;-76
2023/04/02 11:08:40;;;;;;;3.38;1.40;;;10.40;99.90;;;10.08;55.48;101465.16;4863493;29;20135;-75
2023/04/02 11:11:26;;;;;;;2.65;1.05;;;10.50;99.60;;;9.71;51.98;101445.22;4845030;29;20041;-75
2023/04/02 11:14:00;;;;;;;3.40;1.17;;;10.50;96.40;;;9.75;51.30;101451.97;4862970;29;20045;-77
2023/04/02 11:16:26;;;;;;;3.10;1.50;;;10.30;96.00;;;8.54;53.36;101455.75;4862003;29;20478;-78
2023/04/02 11:19:13;;;;;;;3.67;1.23;;;9.60;96.30;;;8.78;53.81;101469.13;4863142;29;20084;-76
2023/04/02 11:21:46;;;;;;;3.85;1.40;;;9.40;97.40;;;9.10;53.38;101476.28;4864830;29;20137;-76